Pescado, New Mexico
Current Conditions -  °F | °C
As of 7:12 AM on Saturday 20 Dec 2014 (Local Time) from KGUP Reporting Station
Broken Clouds Broken Clouds  
Wind Chill: 23°   Ceiling: 200
Heat Index: 23°   Visibility: 10mi
Dew Point: 20°   Wind: 0mph
Humidity: 88%   Direction: NA
Pressure: 30.18"   Gusts: NA
Location:  35.0898°N, 108.763°W
Report Text: KGUP 201412Z AUTO 00000KT 10SM BKN002 M05/M07 A3018 RMK AO2 I1000 T10501067
Loading
Personal Weather Stations






























Interactive Weather Map New forecast layout! Learn more

10-Day Weather Forecast

Advertisements
Track Severe Weather on mobile